createdAt,value
2023-03-22T00:01:31.292Z,97116.75
2023-03-22T00:03:57.589Z,97111.66
2023-03-22T00:06:23.951Z,97110.81
2023-03-22T00:08:50.456Z,97095.66
2023-03-22T00:11:16.671Z,97084.59
2023-03-22T00:13:42.884Z,97090.44
2023-03-22T00:16:09.705Z,97083.72
2023-03-22T00:18:35.983Z,97073.94
2023-03-22T00:21:02.210Z,97056.19
2023-03-22T00:23:28.584Z,97057.56
2023-03-22T00:25:55.092Z,97050.53
2023-03-22T00:28:21.364Z,97052.28
2023-03-22T00:30:51.495Z,97050.53
2023-03-22T00:33:17.720Z,97043.72
2023-03-22T00:35:53.240Z,97040.34
2023-03-22T00:38:20.648Z,97031.13
2023-03-22T00:40:48.135Z,97022.91
2023-03-22T00:43:14.339Z,97011.09
2023-03-22T00:45:40.568Z,97030.88
2023-03-22T00:48:10.306Z,97032.72
2023-03-22T00:50:37.263Z,97046.25
2023-03-22T00:53:03.620Z,97044.28
2023-03-22T00:55:30.009Z,97041.84
2023-03-22T00:57:56.223Z,97015.97
2023-03-22T01:00:22.754Z,97016.03
2023-03-22T01:02:49.075Z,97018.19
2023-03-22T01:05:15.289Z,97017.03
2023-03-22T01:07:42.130Z,97023.44
2023-03-22T01:10:08.632Z,97023.66
2023-03-22T01:12:34.835Z,97022.13
2023-03-22T01:15:01.074Z,97016.63
2023-03-22T01:17:27.281Z,97021.22
2023-03-22T01:19:53.506Z,97014.06
2023-03-22T01:22:19.712Z,97004.25
2023-03-22T01:24:45.945Z,96996.31
2023-03-22T01:27:12.199Z,96983.00
2023-03-22T01:29:38.441Z,96980.28
2023-03-22T01:32:04.739Z,96991.63
2023-03-22T01:34:30.939Z,96974.19
2023-03-22T01:36:57.150Z,96969.00
2023-03-22T01:39:23.363Z,96977.13
2023-03-22T01:41:49.579Z,96956.34
2023-03-22T01:44:22.205Z,96942.13
2023-03-22T01:46:48.864Z,96947.50
2023-03-22T01:49:16.217Z,96958.75
2023-03-22T01:51:43.843Z,96964.09
2023-03-22T01:54:10.832Z,96960.41
2023-03-22T01:56:37.663Z,96963.19
2023-03-22T01:59:04.751Z,96939.97
2023-03-22T02:01:31.037Z,96953.00
2023-03-22T02:03:58.659Z,96949.19
2023-03-22T02:06:25.038Z,96950.25
2023-03-22T02:08:51.287Z,96955.13
2023-03-22T02:11:17.933Z,96933.88
2023-03-22T02:14:02.981Z,96944.31
2023-03-22T02:16:35.848Z,96960.09
2023-03-22T02:19:14.731Z,96961.91
2023-03-22T02:21:44.006Z,96951.97
2023-03-22T02:24:22.456Z,96953.50
2023-03-22T02:26:59.706Z,96948.94
2023-03-22T02:29:40.631Z,96967.44
2023-03-22T02:32:12.913Z,96958.25
2023-03-22T02:34:58.095Z,96957.72
2023-03-22T02:37:32.679Z,96987.13
2023-03-22T02:39:58.845Z,96989.28
2023-03-22T02:42:27.362Z,96990.66
2023-03-22T02:45:01.620Z,96988.97
2023-03-22T02:47:38.980Z,96994.47
2023-03-22T02:50:14.120Z,97001.97
2023-03-22T02:52:40.293Z,96984.69
2023-03-22T02:55:20.850Z,96975.53
2023-03-22T02:57:52.561Z,96981.78
2023-03-22T03:00:18.842Z,96971.22
2023-03-22T03:02:47.201Z,96962.94
2023-03-22T03:05:13.408Z,96964.00
2023-03-22T03:07:39.628Z,96967.34
2023-03-22T03:10:06.125Z,96958.97
2023-03-22T03:12:32.338Z,96963.41
2023-03-22T03:14:58.544Z,96969.66
2023-03-22T03:17:28.158Z,96971.97
2023-03-22T03:19:57.461Z,96970.13
2023-03-22T03:22:42.394Z,96964.31
2023-03-22T03:25:19.512Z,96975.41
2023-03-22T03:27:47.536Z,96972.81
2023-03-22T03:30:14.455Z,96978.03
2023-03-22T03:32:48.086Z,96979.88
2023-03-22T03:35:15.172Z,96965.94
2023-03-22T03:37:41.951Z,96963.34
2023-03-22T03:40:18.339Z,96951.88
2023-03-22T03:42:46.132Z,96956.47
2023-03-22T03:45:12.343Z,96956.16
2023-03-22T03:47:38.549Z,96947.06
2023-03-22T03:50:04.859Z,96961.13
2023-03-22T03:52:31.067Z,96949.16
2023-03-22T03:54:57.402Z,96961.72
2023-03-22T03:57:23.611Z,96972.56
2023-03-22T03:59:49.815Z,96973.59
2023-03-22T04:02:16.079Z,96984.00
2023-03-22T04:04:42.373Z,96982.31
2023-03-22T04:07:08.616Z,96999.13
2023-03-22T04:09:35.691Z,97013.19
2023-03-22T04:12:01.888Z,97018.38
2023-03-22T04:14:28.136Z,97027.25
2023-03-22T04:16:54.502Z,97035.03
2023-03-22T04:19:20.764Z,97044.69
2023-03-22T04:21:46.978Z,97054.75
2023-03-22T04:24:13.202Z,97064.84
2023-03-22T04:26:39.485Z,97072.94
2023-03-22T04:29:06.149Z,97088.53
2023-03-22T04:31:32.721Z,97125.09
2023-03-22T04:33:58.933Z,97134.13
2023-03-22T04:36:25.176Z,97142.66
2023-03-22T04:38:51.524Z,97135.94
2023-03-22T04:41:17.949Z,97149.53
2023-03-22T04:43:44.167Z,97163.25
2023-03-22T04:46:10.420Z,97174.72
2023-03-22T04:48:37.089Z,97197.97
2023-03-22T04:51:04.270Z,97227.78
2023-03-22T04:53:30.547Z,97234.81
2023-03-22T04:55:56.860Z,97251.94
2023-03-22T04:58:23.596Z,97277.47
2023-03-22T05:00:50.150Z,97283.56
2023-03-22T05:03:16.354Z,97312.00
2023-03-22T05:05:48.949Z,97327.13
2023-03-22T05:08:15.167Z,97341.19
2023-03-22T05:10:41.859Z,97351.75
2023-03-22T05:13:08.255Z,97352.34
2023-03-22T05:15:34.477Z,97357.41
2023-03-22T05:18:00.697Z,97374.81
2023-03-22T05:20:26.902Z,97381.09
2023-03-22T05:22:53.110Z,97384.13
2023-03-22T05:25:19.320Z,97390.09
2023-03-22T05:27:45.526Z,97402.81
2023-03-22T05:30:11.783Z,97420.22
2023-03-22T05:32:37.985Z,97445.00
2023-03-22T05:35:04.287Z,97454.00
2023-03-22T05:37:30.491Z,97461.94
2023-03-22T05:39:56.709Z,97494.84
2023-03-22T05:42:22.908Z,97508.28
2023-03-22T05:44:49.121Z,97562.75
2023-03-22T05:47:15.327Z,97590.88
2023-03-22T05:49:41.533Z,97602.19
2023-03-22T05:52:07.740Z,97622.53
2023-03-22T05:54:33.957Z,97638.25
2023-03-22T05:57:00.164Z,97655.41
2023-03-22T05:59:26.584Z,97678.50
2023-03-22T06:01:54.522Z,97715.06
2023-03-22T06:04:20.751Z,97742.13
2023-03-22T06:06:46.944Z,97766.34
2023-03-22T06:09:17.406Z,97796.47
2023-03-22T06:11:44.116Z,97825.22
2023-03-22T06:14:10.335Z,97836.56
2023-03-22T06:16:36.574Z,97862.72
2023-03-22T06:19:02.807Z,97876.19
2023-03-22T06:21:29.032Z,97921.84
2023-03-22T06:23:55.244Z,97942.34
2023-03-22T06:26:21.448Z,97947.91
2023-03-22T06:28:47.674Z,97977.94
2023-03-22T06:31:13.948Z,98007.03
2023-03-22T06:33:40.238Z,98039.78
2023-03-22T06:36:06.712Z,98063.50
2023-03-22T06:38:32.926Z,98098.66
2023-03-22T06:40:59.130Z,98127.78
2023-03-22T06:43:25.323Z,98163.44
2023-03-22T06:45:51.573Z,98181.63
2023-03-22T06:48:17.839Z,98222.41
2023-03-22T06:50:44.612Z,98234.25
2023-03-22T06:53:11.021Z,98249.75
2023-03-22T06:55:37.280Z,98243.34
2023-03-22T06:58:03.544Z,98343.56
2023-03-22T07:00:29.801Z,98479.19
2023-03-22T07:06:19.570Z,98633.97
2023-03-22T07:08:50.748Z,98685.88
2023-03-22T07:11:17.747Z,98706.56
2023-03-22T07:13:43.964Z,98719.72
2023-03-22T07:16:10.247Z,98723.63
2023-03-22T07:18:36.499Z,98746.50
2023-03-22T07:21:02.711Z,98746.50
2023-03-22T07:23:28.921Z,98760.16
2023-03-22T07:25:55.136Z,98780.16
2023-03-22T07:28:21.527Z,98806.59
2023-03-22T07:30:47.809Z,98837.50
2023-03-22T07:33:14.024Z,98848.69
2023-03-22T07:35:40.677Z,98899.97
2023-03-22T07:38:06.914Z,98946.28
2023-03-22T07:40:33.128Z,98994.38
2023-03-22T07:42:59.329Z,99056.00
2023-03-22T07:45:25.672Z,99100.09
2023-03-22T07:47:51.936Z,99149.56
2023-03-22T07:50:18.164Z,99162.84
2023-03-22T07:52:44.659Z,99188.97
2023-03-22T07:55:11.524Z,99225.56
2023-03-22T07:57:37.733Z,99249.91
2023-03-22T08:00:04.680Z,99280.53
2023-03-22T08:02:30.887Z,99291.28
2023-03-22T08:04:57.097Z,99308.97
2023-03-22T08:07:23.353Z,99310.81
2023-03-22T08:09:49.563Z,99324.91
2023-03-22T08:12:15.780Z,99345.53
2023-03-22T08:14:41.980Z,99344.47
2023-03-22T08:17:08.179Z,99366.41
2023-03-22T08:19:34.407Z,99375.53
2023-03-22T08:22:00.649Z,99391.94
2023-03-22T08:24:26.853Z,99397.63
2023-03-22T08:26:53.180Z,99408.06
2023-03-22T08:29:19.404Z,99420.84
2023-03-22T08:31:45.654Z,99427.13
2023-03-22T08:34:11.888Z,99447.25
2023-03-22T08:36:38.174Z,99453.25
2023-03-22T08:39:04.790Z,99451.69
2023-03-22T08:41:30.990Z,99463.44
2023-03-22T08:43:57.191Z,99481.06
2023-03-22T08:46:23.639Z,99481.53
2023-03-22T08:48:49.876Z,99482.00
2023-03-22T08:51:19.522Z,99486.03
2023-03-22T08:53:46.132Z,99487.53
2023-03-22T08:56:12.347Z,99498.72
2023-03-22T08:58:38.542Z,99494.50
2023-03-22T09:01:04.894Z,99485.09
2023-03-22T09:03:31.157Z,99492.88
2023-03-22T09:05:57.370Z,99498.56
2023-03-22T09:08:23.575Z,99490.69
2023-03-22T09:10:49.783Z,99503.44
2023-03-22T09:13:15.988Z,99507.25
2023-03-22T09:15:43.152Z,99526.91
2023-03-22T09:18:09.673Z,99516.53
2023-03-22T09:20:35.893Z,99539.59
2023-03-22T09:23:02.121Z,99542.06
2023-03-22T09:25:28.364Z,99546.41
2023-03-22T09:27:54.560Z,99560.47
2023-03-22T09:30:20.774Z,99560.72
2023-03-22T09:32:46.968Z,99546.34
2023-03-22T09:35:13.252Z,99551.56
2023-03-22T09:37:39.467Z,99542.88
2023-03-22T09:40:06.014Z,99548.53
2023-03-22T09:42:33.294Z,99546.47
2023-03-22T09:44:59.676Z,99540.03
2023-03-22T09:47:42.281Z,99530.19
2023-03-22T09:50:21.089Z,99536.16
2023-03-22T09:52:47.498Z,99522.50
2023-03-22T09:55:17.322Z,99511.97
2023-03-22T09:57:43.530Z,99514.34
2023-03-22T10:00:09.864Z,99530.97
2023-03-22T10:02:38.604Z,99543.72
2023-03-22T10:05:16.017Z,99536.47
2023-03-22T10:07:48.155Z,99492.91
2023-03-22T10:10:14.980Z,99494.75
2023-03-22T10:12:58.020Z,99475.50
2023-03-22T10:15:26.429Z,99483.47
2023-03-22T10:17:53.439Z,99489.50
2023-03-22T10:20:21.699Z,99517.00
2023-03-22T10:22:47.919Z,99507.03
2023-03-22T10:25:18.489Z,99482.88
2023-03-22T10:27:44.719Z,99464.69
2023-03-22T10:30:21.458Z,99463.16
2023-03-22T10:32:58.340Z,99472.00
2023-03-22T10:35:24.698Z,99480.72
2023-03-22T10:37:50.986Z,99509.75
2023-03-22T10:40:35.412Z,99501.59
2023-03-22T10:43:10.080Z,99503.31
2023-03-22T10:45:36.356Z,99472.16
2023-03-22T10:48:04.074Z,99457.75
2023-03-22T10:50:31.621Z,99479.25
2023-03-22T10:53:07.985Z,99481.19
2023-03-22T10:55:39.068Z,99490.50
2023-03-22T10:58:05.490Z,99475.63
2023-03-22T11:00:31.697Z,99494.84
2023-03-22T11:02:58.628Z,99522.31
2023-03-22T11:05:25.334Z,99511.19
2023-03-22T11:07:51.539Z,99491.59
2023-03-22T11:10:21.940Z,99509.44
2023-03-22T11:12:49.751Z,99519.88
2023-03-22T11:15:23.813Z,99505.34
2023-03-22T11:17:50.035Z,99464.53
2023-03-22T11:20:17.017Z,99437.25
2023-03-22T11:22:43.510Z,99402.88
2023-03-22T11:25:30.079Z,99403.25
2023-03-22T11:28:05.557Z,99410.53
2023-03-22T11:30:32.152Z,99421.59
2023-03-22T11:33:02.533Z,99457.50
2023-03-22T11:35:29.404Z,99442.72
2023-03-22T11:37:55.798Z,99435.75
2023-03-22T11:40:29.070Z,99493.81
2023-03-22T11:42:56.163Z,99532.50
2023-03-22T11:45:27.296Z,99525.72
2023-03-22T11:47:53.595Z,99462.63
2023-03-22T11:50:23.623Z,99428.53
2023-03-22T11:52:49.840Z,99465.53
2023-03-22T11:55:16.068Z,99441.44
2023-03-22T11:57:42.291Z,99431.31
2023-03-22T12:00:16.546Z,99437.09
2023-03-22T12:02:43.907Z,99359.84
2023-03-22T12:05:13.321Z,99333.38
2023-03-22T12:07:39.592Z,99282.97
2023-03-22T12:10:07.249Z,99230.75
2023-03-22T12:12:35.736Z,99223.16
2023-03-22T12:15:12.481Z,99197.66
2023-03-22T12:17:41.494Z,99153.75
2023-03-22T12:20:07.865Z,99111.09
2023-03-22T12:22:34.998Z,99124.88
2023-03-22T12:25:01.197Z,99077.09
2023-03-22T12:27:30.466Z,98968.47
2023-03-22T12:29:57.963Z,98988.75
2023-03-22T12:32:28.501Z,99003.22
2023-03-22T12:35:01.374Z,99025.94
2023-03-22T12:37:32.839Z,99003.56
2023-03-22T12:40:00.641Z,98954.75
2023-03-22T12:42:30.812Z,98914.47
2023-03-22T12:45:05.170Z,98921.22
2023-03-22T12:47:34.770Z,98937.31
2023-03-22T12:50:05.473Z,98956.59
2023-03-22T12:52:45.519Z,99007.72
2023-03-22T12:55:21.457Z,98989.19
2023-03-22T12:57:47.662Z,98944.44
2023-03-22T13:00:14.203Z,98951.19
2023-03-22T13:02:40.519Z,98871.22
2023-03-22T13:05:06.910Z,98930.19
2023-03-22T13:07:36.124Z,98953.34
2023-03-22T13:10:22.283Z,98849.59
2023-03-22T13:13:07.329Z,98819.50
2023-03-22T13:15:41.700Z,98868.13
2023-03-22T13:18:28.110Z,98863.03
2023-03-22T13:21:13.434Z,98865.34
2023-03-22T13:23:58.516Z,98825.97
2023-03-22T13:26:31.210Z,98841.22
2023-03-22T13:28:58.266Z,98777.91
2023-03-22T13:31:43.897Z,98768.97
2023-03-22T13:34:14.239Z,98793.66
2023-03-22T13:36:40.451Z,98717.31
2023-03-22T13:39:09.946Z,98722.09
2023-03-22T13:41:36.353Z,98763.00
2023-03-22T13:44:04.842Z,98826.28
2023-03-22T13:46:35.943Z,98771.63
2023-03-22T13:49:02.159Z,98746.47
2023-03-22T13:51:29.585Z,98756.50
2023-03-22T13:53:55.747Z,98721.78
2023-03-22T13:56:30.815Z,98753.59
2023-03-22T13:58:57.032Z,98827.97
2023-03-22T14:01:30.393Z,98660.56
2023-03-22T14:03:59.986Z,98688.84
2023-03-22T14:06:32.522Z,98613.03
2023-03-22T14:08:59.839Z,98606.41
2023-03-22T14:11:29.839Z,98621.91
2023-03-22T14:14:00.158Z,98655.13
2023-03-22T14:16:29.485Z,98595.56
2023-03-22T14:18:55.719Z,98671.22
2023-03-22T14:21:23.697Z,98695.72
